createdAt,value
2022-10-30T00:01:25.758Z,16.20
2022-10-30T00:03:54.577Z,16.20
2022-10-30T00:06:23.188Z,16.10
2022-10-30T00:08:51.921Z,16.10
2022-10-30T00:11:20.741Z,16.10
2022-10-30T00:13:50.784Z,16.10
2022-10-30T00:16:19.417Z,16.10
2022-10-30T00:18:48.090Z,15.90
2022-10-30T00:21:17.511Z,15.90
2022-10-30T00:23:50.014Z,15.90
2022-10-30T00:26:19.601Z,15.90
2022-10-30T00:28:53.117Z,15.90
2022-10-30T00:31:22.876Z,15.90
2022-10-30T00:33:52.784Z,16.00
2022-10-30T00:36:21.603Z,16.00
2022-10-30T00:38:50.285Z,16.00
2022-10-30T00:41:23.659Z,16.10
2022-10-30T00:43:54.733Z,16.10
2022-10-30T00:46:29.614Z,16.00
2022-10-30T00:49:02.189Z,16.00
2022-10-30T00:51:33.827Z,15.90
2022-10-30T00:54:06.408Z,15.90
2022-10-30T00:56:35.965Z,15.80
2022-10-30T00:59:09.569Z,15.80
2022-10-30T01:01:40.776Z,15.70
2022-10-30T01:04:10.209Z,15.60
2022-10-30T01:06:41.263Z,15.60
2022-10-30T01:09:10.406Z,15.60
2022-10-30T01:11:39.105Z,15.50
2022-10-30T01:14:11.169Z,15.60
2022-10-30T01:16:54.065Z,15.50
2022-10-30T01:19:35.947Z,15.40
2022-10-30T01:22:18.931Z,15.20
2022-10-30T01:24:56.221Z,14.90
2022-10-30T01:27:40.671Z,14.90
2022-10-30T01:30:30.008Z,15.00
2022-10-30T01:33:10.953Z,15.10
2022-10-30T01:35:47.428Z,15.00
2022-10-30T01:38:22.871Z,15.00
2022-10-30T01:40:54.690Z,14.90
2022-10-30T01:43:23.407Z,14.90
2022-10-30T01:46:14.924Z,14.90
2022-10-30T01:49:02.636Z,14.80
2022-10-30T01:51:44.367Z,14.80
2022-10-30T01:54:24.823Z,14.80
2022-10-30T01:57:08.369Z,14.90
2022-10-30T01:59:43.199Z,15.10
2022-10-30T02:02:13.866Z,15.10
2022-10-30T02:04:43.079Z,15.20
2022-10-30T02:07:12.721Z,15.30
2022-10-30T02:09:47.602Z,15.30
2022-10-30T02:12:17.989Z,15.40
2022-10-30T02:14:49.749Z,15.30
2022-10-30T02:17:21.189Z,15.40
2022-10-30T02:19:51.811Z,15.40
2022-10-30T02:22:22.234Z,15.30
2022-10-30T02:24:51.085Z,15.20
2022-10-30T02:27:23.176Z,15.20
2022-10-30T02:29:51.882Z,15.10
2022-10-30T02:32:20.517Z,15.10
2022-10-30T02:34:49.211Z,15.20
2022-10-30T02:37:17.862Z,15.10
2022-10-30T02:39:48.110Z,15.10
2022-10-30T02:42:16.853Z,15.00
2022-10-30T02:44:45.606Z,15.10
2022-10-30T02:47:14.232Z,15.00
2022-10-30T02:49:42.966Z,14.90
2022-10-30T02:52:12.276Z,14.90
2022-10-30T02:54:43.508Z,14.90
2022-10-30T02:57:13.855Z,14.90
2022-10-30T02:59:42.529Z,14.90
2022-10-30T03:02:11.953Z,14.90
2022-10-30T03:04:40.675Z,14.80
2022-10-30T03:07:09.304Z,14.80
2022-10-30T03:09:37.948Z,14.70
2022-10-30T03:12:07.116Z,14.70
2022-10-30T03:14:37.145Z,14.70
2022-10-30T03:17:06.442Z,14.60
2022-10-30T03:19:35.742Z,14.70
2022-10-30T03:22:04.654Z,14.70
2022-10-30T03:24:33.348Z,14.80
2022-10-30T03:27:02.045Z,14.80
2022-10-30T03:29:31.173Z,14.90
2022-10-30T03:32:01.274Z,14.90
2022-10-30T03:34:34.773Z,14.90
2022-10-30T03:37:07.203Z,14.90
2022-10-30T03:39:36.446Z,14.90
2022-10-30T03:42:05.206Z,14.90
2022-10-30T03:44:33.958Z,14.90
2022-10-30T03:47:05.627Z,14.90
2022-10-30T03:49:40.365Z,14.80
2022-10-30T03:52:13.049Z,14.80
2022-10-30T03:54:41.784Z,14.90
2022-10-30T03:57:12.025Z,14.80
2022-10-30T04:00:04.038Z,14.80
2022-10-30T04:02:57.600Z,14.90
2022-10-30T04:05:29.400Z,14.90
2022-10-30T04:08:02.116Z,14.80
2022-10-30T04:10:35.314Z,14.80
2022-10-30T04:13:11.714Z,14.80
2022-10-30T04:15:54.220Z,14.90
2022-10-30T04:18:28.881Z,14.80
2022-10-30T04:21:00.609Z,14.80
2022-10-30T04:23:29.449Z,14.80
2022-10-30T04:25:58.247Z,14.90
2022-10-30T04:28:27.036Z,14.90
2022-10-30T04:30:55.689Z,14.80
2022-10-30T04:33:24.740Z,14.80
2022-10-30T04:35:54.953Z,14.70
2022-10-30T04:38:24.227Z,14.70
2022-10-30T04:40:53.273Z,14.80
2022-10-30T04:43:22.184Z,14.90
2022-10-30T04:45:54.210Z,14.90
2022-10-30T04:48:23.772Z,14.90
2022-10-30T04:50:52.420Z,14.90
2022-10-30T04:53:28.150Z,14.90
2022-10-30T04:56:02.556Z,14.90
2022-10-30T04:58:33.446Z,15.00
2022-10-30T05:01:08.480Z,15.10
2022-10-30T05:03:38.372Z,15.10
2022-10-30T05:06:22.643Z,15.10
2022-10-30T05:08:53.361Z,15.00
2022-10-30T05:11:37.803Z,15.00
2022-10-30T05:14:06.609Z,15.00
2022-10-30T05:16:35.412Z,15.10
2022-10-30T05:19:06.865Z,15.10
2022-10-30T05:21:36.583Z,15.00
2022-10-30T05:24:08.727Z,15.10
2022-10-30T05:26:43.965Z,15.10
2022-10-30T05:29:14.079Z,15.00
2022-10-30T05:31:43.092Z,15.10
2022-10-30T05:34:11.784Z,14.90
2022-10-30T05:36:41.733Z,14.90
2022-10-30T05:39:13.355Z,15.00
2022-10-30T05:41:46.256Z,15.00
2022-10-30T05:44:18.077Z,15.10
2022-10-30T05:46:57.535Z,15.20
2022-10-30T05:49:29.644Z,15.20
2022-10-30T05:52:00.463Z,15.30
2022-10-30T05:54:31.065Z,15.20
2022-10-30T05:57:07.944Z,15.20
2022-10-30T05:59:38.785Z,15.20
2022-10-30T06:02:07.641Z,15.20
2022-10-30T06:04:36.759Z,15.10
2022-10-30T06:07:11.373Z,15.30
2022-10-30T06:09:41.609Z,15.60
2022-10-30T06:12:22.263Z,15.80
2022-10-30T06:15:13.583Z,15.90
2022-10-30T06:17:42.343Z,15.80
2022-10-30T06:20:16.909Z,15.80
2022-10-30T06:23:08.949Z,15.70
2022-10-30T06:26:06.205Z,15.80
2022-10-30T06:28:43.897Z,15.80
2022-10-30T06:31:14.804Z,16.00
2022-10-30T06:33:46.273Z,16.10
2022-10-30T06:36:17.532Z,16.10
2022-10-30T06:38:46.727Z,16.20
2022-10-30T06:41:21.652Z,16.20
2022-10-30T06:44:19.320Z,16.10
2022-10-30T06:46:48.311Z,16.20
2022-10-30T06:49:17.001Z,16.40
2022-10-30T06:51:45.830Z,16.60
2022-10-30T06:54:14.577Z,16.70
2022-10-30T06:56:44.669Z,16.70
2022-10-30T06:59:16.053Z,16.80
2022-10-30T07:01:48.154Z,16.90
2022-10-30T07:04:19.503Z,16.90
2022-10-30T07:06:49.142Z,17.10
2022-10-30T07:09:20.007Z,17.00
2022-10-30T07:11:56.595Z,17.10
2022-10-30T07:14:51.572Z,17.20
2022-10-30T07:17:40.546Z,17.30
2022-10-30T07:20:17.520Z,17.40
2022-10-30T07:22:46.496Z,17.50
2022-10-30T07:25:15.298Z,17.60
2022-10-30T07:28:12.401Z,17.70
2022-10-30T07:30:50.498Z,17.70
2022-10-30T07:33:48.059Z,17.90
2022-10-30T07:36:43.865Z,18.10
2022-10-30T07:39:25.602Z,18.30
2022-10-30T07:42:04.963Z,18.40
2022-10-30T07:48:03.091Z,18.70
2022-10-30T07:50:55.212Z,18.80
2022-10-30T07:53:23.964Z,18.90
2022-10-30T07:55:53.369Z,19.00
2022-10-30T07:58:45.281Z,19.10
2022-10-30T08:01:36.299Z,19.30
2022-10-30T08:04:34.030Z,19.40
2022-10-30T08:07:14.828Z,19.60
2022-10-30T08:09:43.550Z,19.70
2022-10-30T08:12:12.232Z,19.70
2022-10-30T08:14:41.297Z,19.80
2022-10-30T08:17:11.388Z,19.90
2022-10-30T08:19:41.220Z,20.00
2022-10-30T08:22:11.768Z,19.90
2022-10-30T08:24:42.275Z,19.80
2022-10-30T08:27:11.351Z,19.80
2022-10-30T08:29:41.690Z,19.90
2022-10-30T08:32:11.805Z,19.90
2022-10-30T08:35:11.779Z,19.90
2022-10-30T08:37:41.408Z,19.90
2022-10-30T08:40:11.340Z,19.90
2022-10-30T08:42:52.755Z,20.00
2022-10-30T08:45:25.124Z,20.00
2022-10-30T08:48:06.714Z,20.00
2022-10-30T08:50:39.698Z,20.20
2022-10-30T08:53:12.131Z,20.30
2022-10-30T08:55:40.875Z,20.30
2022-10-30T08:58:17.438Z,20.40
2022-10-30T09:00:47.643Z,20.50
2022-10-30T09:03:18.135Z,20.60
2022-10-30T09:06:09.888Z,20.60
2022-10-30T09:08:57.010Z,20.70
2022-10-30T09:11:43.296Z,20.80
2022-10-30T09:14:12.131Z,20.80
2022-10-30T09:16:41.403Z,20.80
2022-10-30T09:19:17.756Z,20.90
2022-10-30T09:21:48.144Z,21.00
2022-10-30T09:26:45.759Z,21.10
2022-10-30T09:29:19.430Z,21.10
2022-10-30T09:32:20.604Z,21.30
2022-10-30T09:35:13.510Z,21.20
2022-10-30T09:37:43.579Z,21.30
2022-10-30T09:40:24.521Z,21.40
2022-10-30T09:42:55.876Z,21.40
2022-10-30T09:46:00.262Z,21.30
2022-10-30T09:48:59.437Z,21.50
2022-10-30T09:51:50.602Z,21.50
2022-10-30T09:54:30.334Z,21.60
2022-10-30T09:57:07.488Z,21.60
2022-10-30T09:59:45.718Z,21.80
2022-10-30T10:02:25.795Z,21.90
2022-10-30T10:04:59.351Z,22.00
2022-10-30T10:07:51.431Z,22.10
2022-10-30T10:10:42.083Z,22.20
2022-10-30T10:13:31.356Z,22.20
2022-10-30T10:16:06.297Z,22.30
2022-10-30T10:18:41.464Z,22.50
2022-10-30T10:21:20.034Z,22.50
2022-10-30T10:23:51.745Z,22.60
2022-10-30T10:26:29.835Z,22.50
2022-10-30T10:29:23.775Z,22.60
2022-10-30T10:32:08.332Z,22.60
2022-10-30T10:34:56.647Z,22.80
2022-10-30T10:37:33.841Z,22.90
2022-10-30T10:40:25.755Z,23.00
2022-10-30T10:43:06.166Z,23.10
2022-10-30T10:45:42.181Z,23.30
2022-10-30T10:48:47.018Z,23.60
2022-10-30T10:51:19.443Z,23.50
2022-10-30T10:53:53.421Z,23.70
2022-10-30T10:56:29.434Z,23.90
2022-10-30T10:59:02.561Z,24.10
2022-10-30T11:01:39.550Z,24.10
2022-10-30T11:04:15.647Z,24.40
2022-10-30T11:06:50.634Z,24.50
2022-10-30T11:09:21.535Z,24.50
2022-10-30T11:11:53.398Z,24.70
2022-10-30T11:14:24.837Z,24.90
2022-10-30T11:17:03.353Z,25.00
2022-10-30T11:19:33.173Z,25.10
2022-10-30T11:22:03.399Z,25.00
2022-10-30T11:24:33.871Z,24.90
2022-10-30T11:27:19.723Z,25.00
2022-10-30T11:29:54.736Z,25.00
2022-10-30T11:32:27.635Z,25.00
2022-10-30T11:35:05.037Z,25.20
2022-10-30T11:37:34.900Z,25.50
2022-10-30T11:40:06.730Z,25.50
2022-10-30T11:42:38.652Z,25.60
2022-10-30T11:45:16.979Z,25.70
2022-10-30T11:47:45.996Z,25.60
2022-10-30T11:50:21.386Z,25.60
2022-10-30T11:52:52.657Z,25.70
2022-10-30T11:55:25.621Z,25.80
2022-10-30T11:57:58.999Z,25.80
2022-10-30T12:00:29.881Z,25.90
2022-10-30T12:03:01.066Z,25.80
2022-10-30T12:05:37.532Z,25.50
2022-10-30T12:08:21.697Z,25.70
2022-10-30T12:11:00.045Z,25.80
2022-10-30T12:13:37.984Z,26.40
2022-10-30T12:16:10.724Z,26.60
2022-10-30T12:18:41.631Z,27.20
2022-10-30T12:21:10.397Z,27.60
2022-10-30T12:23:40.822Z,28.00
2022-10-30T12:26:13.879Z,28.80
2022-10-30T12:28:53.063Z,29.60
2022-10-30T12:31:25.820Z,30.60
2022-10-30T12:34:05.581Z,32.10
2022-10-30T12:36:42.558Z,32.30
2022-10-30T12:39:18.149Z,32.20
2022-10-30T12:41:58.583Z,31.50
2022-10-30T12:44:35.440Z,32.00
2022-10-30T12:47:10.658Z,33.00
2022-10-30T12:49:44.573Z,33.70
2022-10-30T12:52:19.256Z,33.90
2022-10-30T12:54:53.436Z,34.90
2022-10-30T12:57:26.451Z,36.30
2022-10-30T13:00:03.968Z,35.90
2022-10-30T13:02:46.874Z,34.60
2022-10-30T13:05:28.019Z,34.10
2022-10-30T13:08:13.163Z,31.50
2022-10-30T13:10:47.641Z,29.20
2022-10-30T13:13:20.238Z,28.10
2022-10-30T13:15:52.659Z,27.10
2022-10-30T13:18:24.812Z,26.60
2022-10-30T13:21:05.378Z,26.10
2022-10-30T13:23:41.753Z,25.40
2022-10-30T13:26:19.894Z,24.80
2022-10-30T13:28:54.917Z,24.40
2022-10-30T13:31:33.983Z,24.20
2022-10-30T13:34:07.381Z,24.10
2022-10-30T13:36:47.311Z,24.00
2022-10-30T13:39:32.558Z,24.00
2022-10-30T13:42:19.468Z,23.80
2022-10-30T13:44:57.191Z,23.70
2022-10-30T13:47:36.107Z,23.50
2022-10-30T13:50:32.603Z,23.30
2022-10-30T13:53:04.927Z,23.30
2022-10-30T13:55:35.684Z,23.30
2022-10-30T13:58:11.819Z,23.20
2022-10-30T14:00:55.536Z,23.00
2022-10-30T14:03:39.765Z,23.00
2022-10-30T14:06:18.482Z,23.00
2022-10-30T14:08:53.944Z,22.90
2022-10-30T14:11:22.687Z,22.90
2022-10-30T14:13:57.701Z,22.80
2022-10-30T14:16:36.472Z,22.80
2022-10-30T14:19:08.161Z,22.70
2022-10-30T14:21:53.777Z,22.60
2022-10-30T14:27:11.952Z,22.50
2022-10-30T14:29:47.049Z,22.50
2022-10-30T14:32:36.928Z,22.50
2022-10-30T14:35:34.001Z,22.40
2022-10-30T14:38:29.070Z,22.50
2022-10-30T14:41:11.173Z,22.40
2022-10-30T14:43:51.917Z,22.30
2022-10-30T14:46:29.870Z,22.30
2022-10-30T14:49:08.496Z,22.20
2022-10-30T14:51:45.943Z,22.10
2022-10-30T14:54:21.784Z,22.00
2022-10-30T14:56:52.849Z,22.10
2022-10-30T14:59:32.719Z,22.00
2022-10-30T15:02:25.314Z,21.90
2022-10-30T15:05:19.091Z,21.80
2022-10-30T15:07:53.630Z,21.70
2022-10-30T15:10:30.933Z,21.70
2022-10-30T15:13:10.757Z,21.60
2022-10-30T15:15:39.846Z,21.50
2022-10-30T15:18:12.583Z,21.50
2022-10-30T15:20:41.499Z,21.40
2022-10-30T15:23:17.814Z,21.40
2022-10-30T15:25:48.965Z,21.40
2022-10-30T15:28:21.765Z,21.30
2022-10-30T15:31:04.395Z,21.30
2022-10-30T15:33:35.499Z,21.20
2022-10-30T15:36:04.610Z,21.10
2022-10-30T15:38:34.732Z,21.00
2022-10-30T15:41:05.705Z,20.90
2022-10-30T15:43:36.927Z,20.90
2022-10-30T15:46:11.196Z,20.80
2022-10-30T15:48:42.274Z,20.90
2022-10-30T15:51:17.209Z,20.70
2022-10-30T15:53:49.489Z,20.60
2022-10-30T15:56:21.074Z,20.50
2022-10-30T15:58:54.531Z,20.50
2022-10-30T16:01:27.965Z,20.60
2022-10-30T16:03:56.706Z,20.60
2022-10-30T16:06:29.519Z,20.50
2022-10-30T16:09:00.029Z,20.30
2022-10-30T16:11:29.046Z,20.30
2022-10-30T16:13:57.753Z,20.20
2022-10-30T16:16:30.377Z,20.10
2022-10-30T16:19:01.632Z,20.00
2022-10-30T16:21:31.215Z,20.00
2022-10-30T16:24:05.395Z,19.80
2022-10-30T16:26:36.127Z,19.80
2022-10-30T16:29:17.653Z,19.70
2022-10-30T16:31:50.221Z,19.60
2022-10-30T16:34:25.031Z,19.50
2022-10-30T16:36:54.254Z,19.30
2022-10-30T16:39:25.182Z,19.20
2022-10-30T16:41:58.009Z,19.20
2022-10-30T16:44:30.788Z,19.10
2022-10-30T16:47:05.162Z,19.00
2022-10-30T16:49:36.569Z,19.00
2022-10-30T16:52:07.194Z,18.80
2022-10-30T16:54:40.290Z,18.70
2022-10-30T16:57:17.065Z,18.50
2022-10-30T16:59:49.102Z,18.50
2022-10-30T17:02:20.980Z,18.40
2022-10-30T17:04:57.205Z,18.40
2022-10-30T17:07:28.283Z,18.30
2022-10-30T17:09:58.715Z,18.30
2022-10-30T17:12:29.085Z,18.30
2022-10-30T17:15:08.030Z,18.30
2022-10-30T17:17:38.246Z,18.30
2022-10-30T17:20:14.036Z,18.20
2022-10-30T17:22:42.943Z,18.20
2022-10-30T17:25:29.703Z,18.20
2022-10-30T17:27:58.892Z,18.20
2022-10-30T17:30:38.080Z,18.10
2022-10-30T17:33:31.783Z,18.10
2022-10-30T17:36:00.600Z,18.10
2022-10-30T17:38:29.671Z,18.20
2022-10-30T17:40:59.873Z,18.20
2022-10-30T17:43:31.364Z,18.20
2022-10-30T17:46:07.509Z,18.20
2022-10-30T17:48:36.991Z,18.20
2022-10-30T17:51:05.782Z,18.10
2022-10-30T17:53:34.429Z,18.00
2022-10-30T17:56:08.527Z,17.80
2022-10-30T17:58:37.341Z,17.70
2022-10-30T18:01:06.373Z,17.70
2022-10-30T18:03:35.294Z,17.60
2022-10-30T18:06:05.034Z,17.60
2022-10-30T18:08:34.015Z,17.70
2022-10-30T18:11:04.084Z,17.70
2022-10-30T18:13:32.780Z,17.70
2022-10-30T18:16:01.439Z,17.80
2022-10-30T18:18:30.600Z,17.80
2022-10-30T18:21:01.865Z,17.80
2022-10-30T18:26:23.679Z,17.80
2022-10-30T18:28:52.521Z,17.90
2022-10-30T18:31:23.080Z,17.80
2022-10-30T18:33:52.296Z,17.80
2022-10-30T18:36:23.034Z,17.70
2022-10-30T18:38:52.791Z,17.70
2022-10-30T18:41:26.436Z,17.50
2022-10-30T18:43:55.154Z,17.50
2022-10-30T18:46:24.926Z,17.60
2022-10-30T18:48:53.644Z,17.50
2022-10-30T18:51:25.109Z,17.40
2022-10-30T18:53:54.937Z,17.30
2022-10-30T18:56:26.755Z,17.20
2022-10-30T18:59:01.819Z,17.30
2022-10-30T19:01:33.024Z,17.40
2022-10-30T19:04:03.795Z,17.40
2022-10-30T19:06:38.547Z,17.30
2022-10-30T19:09:07.688Z,17.30
2022-10-30T19:11:40.670Z,17.10
2022-10-30T19:14:14.518Z,17.00
2022-10-30T19:16:43.554Z,17.00
2022-10-30T19:19:15.147Z,17.10
2022-10-30T19:21:44.172Z,17.20
2022-10-30T19:24:15.663Z,17.20
2022-10-30T19:26:45.781Z,17.20
2022-10-30T19:29:14.435Z,17.40
2022-10-30T19:31:43.763Z,17.40
2022-10-30T19:34:12.409Z,17.40
2022-10-30T19:36:41.063Z,17.50
2022-10-30T19:39:16.881Z,17.50
2022-10-30T19:41:47.217Z,17.50
2022-10-30T19:44:15.880Z,17.30
2022-10-30T19:46:44.552Z,17.30
2022-10-30T19:49:20.223Z,17.20
2022-10-30T19:51:49.280Z,17.10
2022-10-30T19:54:20.721Z,17.00
2022-10-30T19:56:50.876Z,17.10
2022-10-30T19:59:19.548Z,17.10
2022-10-30T20:01:48.277Z,17.20
2022-10-30T20:04:17.019Z,17.10
2022-10-30T20:06:45.701Z,17.20
2022-10-30T20:09:14.660Z,17.10
2022-10-30T20:11:43.310Z,17.20
2022-10-30T20:14:13.360Z,17.20
2022-10-30T20:16:42.035Z,17.20
2022-10-30T20:19:28.622Z,17.20
2022-10-30T20:21:57.497Z,17.20
2022-10-30T20:24:26.154Z,17.10
2022-10-30T20:26:56.665Z,17.10
2022-10-30T20:29:27.027Z,17.00
2022-10-30T20:31:55.725Z,17.00
2022-10-30T20:34:24.379Z,16.90
2022-10-30T20:36:52.992Z,17.00
2022-10-30T20:39:21.666Z,17.00
2022-10-30T20:41:50.345Z,17.10
2022-10-30T20:44:19.011Z,17.00
2022-10-30T20:46:49.108Z,16.90
2022-10-30T20:49:18.473Z,16.90
2022-10-30T20:51:47.835Z,16.90
2022-10-30T20:54:16.724Z,16.90
2022-10-30T20:56:45.412Z,16.90
2022-10-30T20:59:14.078Z,16.80
2022-10-30T21:01:43.135Z,17.00
2022-10-30T21:04:13.389Z,17.00
2022-10-30T21:06:42.475Z,16.90
2022-10-30T21:09:11.163Z,16.90
2022-10-30T21:11:39.826Z,16.80
2022-10-30T21:14:08.581Z,16.90
2022-10-30T21:16:37.224Z,17.10
2022-10-30T21:19:05.883Z,17.10
2022-10-30T21:21:36.023Z,17.10
2022-10-30T21:24:04.836Z,17.00
2022-10-30T21:26:35.132Z,16.90
2022-10-30T21:29:03.896Z,16.80
2022-10-30T21:31:32.908Z,16.70
2022-10-30T21:34:01.651Z,16.70
2022-10-30T21:36:30.500Z,16.60
2022-10-30T21:39:00.920Z,16.60
2022-10-30T21:41:29.696Z,16.60
2022-10-30T21:44:00.709Z,16.80
2022-10-30T21:46:32.052Z,16.80
2022-10-30T21:49:04.744Z,16.80
2022-10-30T21:51:33.784Z,16.80
2022-10-30T21:54:03.871Z,16.90
2022-10-30T21:56:32.521Z,16.90
2022-10-30T21:59:04.808Z,16.80
2022-10-30T22:01:37.557Z,16.70
2022-10-30T22:04:08.396Z,16.60
2022-10-30T22:06:40.306Z,16.50
2022-10-30T22:09:10.455Z,16.50
2022-10-30T22:11:39.578Z,16.60
2022-10-30T22:14:08.373Z,16.70
2022-10-30T22:16:40.458Z,16.70
2022-10-30T22:19:12.333Z,16.60
2022-10-30T22:21:41.003Z,16.70
2022-10-30T22:24:13.141Z,16.70
2022-10-30T22:26:41.829Z,16.50
2022-10-30T22:29:10.491Z,16.50
2022-10-30T22:31:42.542Z,16.20
2022-10-30T22:34:12.198Z,16.00
2022-10-30T22:36:40.870Z,16.00
2022-10-30T22:39:14.442Z,16.10
2022-10-30T22:41:43.827Z,16.10
2022-10-30T22:44:15.000Z,16.10
2022-10-30T22:46:43.699Z,16.10
2022-10-30T22:49:12.924Z,16.20
2022-10-30T22:51:41.635Z,16.20
2022-10-30T22:54:13.415Z,16.20
2022-10-30T22:56:42.897Z,16.00
2022-10-30T22:59:13.511Z,15.90
2022-10-30T23:01:43.135Z,15.90
2022-10-30T23:04:14.149Z,15.90
2022-10-30T23:06:45.314Z,15.90
2022-10-30T23:09:19.595Z,15.90
2022-10-30T23:11:48.416Z,15.80
2022-10-30T23:14:17.062Z,15.80
2022-10-30T23:16:45.731Z,15.90
2022-10-30T23:19:14.438Z,16.00
2022-10-30T23:21:43.166Z,15.90
2022-10-30T23:24:11.801Z,15.80
2022-10-30T23:26:41.937Z,15.80
2022-10-30T23:29:10.598Z,15.70
2022-10-30T23:31:40.717Z,15.60
2022-10-30T23:42:07.177Z,15.70
2022-10-30T23:44:35.830Z,15.60
2022-10-30T23:47:04.486Z,15.60
2022-10-30T23:49:34.170Z,15.70
2022-10-30T23:52:02.947Z,15.70
2022-10-30T23:54:31.388Z,15.70
2022-10-30T23:56:59.823Z,15.70
2022-10-30T23:59:29.634Z,15.70
